createdAt,value
2023-11-15T00:01:39.500Z,53.01
2023-11-15T00:04:08.179Z,52.79
2023-11-15T00:06:36.900Z,53.78
2023-11-15T00:09:08.282Z,52.98
2023-11-15T00:11:37.441Z,51.81
2023-11-15T00:14:06.053Z,53.99
2023-11-15T00:16:34.659Z,51.82
2023-11-15T00:19:03.490Z,52.39
2023-11-15T00:21:32.424Z,52.58
2023-11-15T00:24:00.780Z,53.52
2023-11-15T00:26:31.658Z,51.62
2023-11-15T00:29:00.240Z,52.00
2023-11-15T00:31:28.785Z,51.45
2023-11-15T00:33:57.380Z,51.85
2023-11-15T00:36:26.023Z,50.97
2023-11-15T00:38:54.653Z,51.63
2023-11-15T00:41:23.341Z,50.81
2023-11-15T00:43:51.901Z,53.53
2023-11-15T00:46:20.506Z,52.92
2023-11-15T00:48:49.217Z,51.31
2023-11-15T00:51:17.602Z,52.67
2023-11-15T00:53:46.170Z,52.78
2023-11-15T00:56:14.990Z,51.95
2023-11-15T00:58:43.952Z,54.50
2023-11-15T01:01:13.355Z,54.31
2023-11-15T01:03:47.825Z,55.68
2023-11-15T01:06:16.196Z,54.65
2023-11-15T01:08:44.721Z,55.50
2023-11-15T01:11:13.275Z,55.70
2023-11-15T01:13:42.179Z,54.19
2023-11-15T01:16:10.864Z,53.74
2023-11-15T01:18:39.461Z,55.83
2023-11-15T01:21:11.452Z,55.18
2023-11-15T01:23:41.317Z,55.50
2023-11-15T01:26:10.037Z,54.87
2023-11-15T01:28:38.708Z,54.61
2023-11-15T01:31:06.929Z,55.23
2023-11-15T01:33:35.648Z,54.56
2023-11-15T01:36:04.259Z,53.97
2023-11-15T01:38:32.908Z,54.20
2023-11-15T01:41:02.331Z,54.49
2023-11-15T01:43:30.864Z,54.47
2023-11-15T01:45:59.847Z,53.78
2023-11-15T01:48:28.506Z,53.21
2023-11-15T01:50:57.951Z,54.06
2023-11-15T01:53:27.460Z,53.52
2023-11-15T01:55:56.545Z,52.29
2023-11-15T01:58:30.652Z,52.57
2023-11-15T02:00:59.610Z,51.44
2023-11-15T02:03:28.252Z,51.64
2023-11-15T02:05:57.409Z,51.56
2023-11-15T02:08:26.062Z,52.12
2023-11-15T02:10:55.342Z,52.88
2023-11-15T02:13:28.677Z,53.08
2023-11-15T02:16:00.517Z,53.00
2023-11-15T02:18:29.187Z,53.45
2023-11-15T02:20:57.816Z,53.23
2023-11-15T02:23:28.140Z,51.80
2023-11-15T02:25:56.780Z,51.31
2023-11-15T02:28:25.566Z,51.15
2023-11-15T02:30:54.267Z,51.52
2023-11-15T02:33:22.872Z,51.48
2023-11-15T02:35:51.436Z,51.30
2023-11-15T02:38:20.157Z,50.27
2023-11-15T02:40:48.732Z,51.28
2023-11-15T02:43:17.329Z,51.99
2023-11-15T02:45:46.171Z,52.47
2023-11-15T02:48:14.962Z,52.82
2023-11-15T02:50:43.545Z,51.91
2023-11-15T02:53:12.255Z,53.21
2023-11-15T02:55:40.780Z,53.77
2023-11-15T02:58:09.300Z,55.54
2023-11-15T03:00:37.852Z,55.64
2023-11-15T03:03:06.709Z,54.45
2023-11-15T03:05:35.473Z,55.22
2023-11-15T03:08:04.134Z,54.89
2023-11-15T03:10:32.864Z,55.00
2023-11-15T03:13:02.566Z,57.75
2023-11-15T03:15:31.872Z,58.65
2023-11-15T03:18:00.740Z,59.69
2023-11-15T03:20:29.672Z,59.68
2023-11-15T03:22:58.162Z,59.89
2023-11-15T03:25:26.693Z,58.18
2023-11-15T03:27:56.234Z,56.90
2023-11-15T03:30:25.985Z,58.37
2023-11-15T03:32:54.686Z,57.44
2023-11-15T03:35:24.591Z,59.62
2023-11-15T03:37:54.524Z,58.81
2023-11-15T03:40:23.203Z,60.53
2023-11-15T03:42:52.821Z,62.40
2023-11-15T03:45:21.554Z,60.61
2023-11-15T03:47:50.017Z,59.73
2023-11-15T03:50:18.625Z,60.55
2023-11-15T03:52:47.236Z,62.45
2023-11-15T03:55:15.947Z,62.55
2023-11-15T03:57:45.343Z,62.16
2023-11-15T04:00:14.399Z,61.90
2023-11-15T04:02:42.534Z,61.87
2023-11-15T04:05:15.407Z,62.79
2023-11-15T04:07:44.481Z,62.43
2023-11-15T04:10:13.483Z,63.09
2023-11-15T04:12:42.147Z,63.90
2023-11-15T04:15:11.543Z,65.09
2023-11-15T04:17:40.380Z,65.50
2023-11-15T04:20:11.177Z,64.23
2023-11-15T04:22:39.785Z,65.63
2023-11-15T04:25:08.670Z,65.22
2023-11-15T04:27:37.355Z,65.10
2023-11-15T04:30:06.315Z,64.85
2023-11-15T04:32:34.796Z,65.46
2023-11-15T04:35:06.120Z,64.11
2023-11-15T04:37:38.997Z,64.55
2023-11-15T04:40:12.687Z,65.79
2023-11-15T04:42:41.342Z,65.63
2023-11-15T04:45:12.041Z,66.10
2023-11-15T04:47:40.684Z,64.96
2023-11-15T04:50:10.773Z,65.05
2023-11-15T04:52:39.526Z,64.76
2023-11-15T04:55:08.244Z,65.72
2023-11-15T04:57:37.449Z,66.51
2023-11-15T05:00:07.958Z,65.17
2023-11-15T05:02:36.392Z,66.07
2023-11-15T05:05:07.567Z,65.46
2023-11-15T05:07:37.054Z,65.93
2023-11-15T05:10:07.319Z,66.88
2023-11-15T05:12:35.890Z,65.93
2023-11-15T05:15:04.853Z,66.32
2023-11-15T05:17:33.665Z,65.30
2023-11-15T05:20:02.212Z,66.74
2023-11-15T05:22:30.769Z,65.36
2023-11-15T05:24:59.315Z,65.63
2023-11-15T05:27:28.119Z,66.09
2023-11-15T05:29:56.655Z,66.39
2023-11-15T05:32:25.370Z,67.64
2023-11-15T05:34:53.953Z,67.26
2023-11-15T05:37:22.422Z,66.77
2023-11-15T05:39:50.984Z,67.69
2023-11-15T05:42:19.492Z,67.34
2023-11-15T05:44:48.009Z,67.71
2023-11-15T05:47:18.173Z,67.53
2023-11-15T05:49:46.549Z,68.36
2023-11-15T05:52:17.174Z,65.53
2023-11-15T05:54:46.759Z,66.61
2023-11-15T05:57:16.357Z,64.77
2023-11-15T05:59:45.026Z,65.36
2023-11-15T06:02:13.906Z,66.38
2023-11-15T06:04:42.797Z,65.69
2023-11-15T06:07:11.992Z,65.42
2023-11-15T06:09:40.610Z,65.65
2023-11-15T06:12:09.617Z,66.42
2023-11-15T06:14:38.118Z,65.11
2023-11-15T06:17:06.959Z,65.04
2023-11-15T06:19:35.685Z,59.38
2023-11-15T06:22:04.250Z,61.23
2023-11-15T06:24:34.848Z,60.35
2023-11-15T06:27:03.496Z,62.20
2023-11-15T06:29:32.138Z,60.88
2023-11-15T06:32:00.762Z,60.83
2023-11-15T06:34:29.315Z,61.13
2023-11-15T06:36:58.434Z,60.64
2023-11-15T06:39:27.296Z,61.41
2023-11-15T06:41:56.082Z,60.07
2023-11-15T06:44:24.655Z,61.14
2023-11-15T06:46:53.291Z,61.30
2023-11-15T06:49:21.970Z,59.84
2023-11-15T06:51:51.622Z,58.55
2023-11-15T06:54:20.236Z,57.50
2023-11-15T06:56:51.737Z,57.69
2023-11-15T06:59:20.475Z,57.67
2023-11-15T07:01:52.456Z,56.74
2023-11-15T07:04:22.306Z,57.19
2023-11-15T07:06:51.200Z,57.80
2023-11-15T07:09:22.820Z,59.27
2023-11-15T07:11:54.425Z,57.65
2023-11-15T07:14:23.099Z,58.55
2023-11-15T07:16:57.929Z,57.36
2023-11-15T07:19:27.281Z,59.65
2023-11-15T07:21:55.936Z,60.83
2023-11-15T07:24:24.638Z,58.67
2023-11-15T07:26:53.597Z,58.95
2023-11-15T07:29:22.856Z,60.86
2023-11-15T07:31:55.474Z,61.63
2023-11-15T07:34:25.574Z,61.93
2023-11-15T07:37:04.887Z,62.60
2023-11-15T07:39:33.585Z,60.28
2023-11-15T07:42:03.006Z,62.83
2023-11-15T07:44:32.651Z,62.70
2023-11-15T07:47:04.316Z,63.55
2023-11-15T07:49:32.810Z,63.59
2023-11-15T07:52:01.465Z,62.33
2023-11-15T07:54:30.293Z,63.35
2023-11-15T07:56:58.953Z,62.64
2023-11-15T07:59:28.567Z,65.24
2023-11-15T08:01:57.112Z,64.11
2023-11-15T08:04:27.363Z,62.50
2023-11-15T08:06:56.028Z,64.12
2023-11-15T08:09:27.481Z,63.16
2023-11-15T08:11:58.197Z,64.29
2023-11-15T08:14:27.822Z,64.27
2023-11-15T08:16:57.221Z,63.91
2023-11-15T08:19:25.838Z,63.62
2023-11-15T08:21:58.963Z,62.31
2023-11-15T08:24:28.989Z,62.51
2023-11-15T08:26:58.499Z,60.57
2023-11-15T08:29:27.037Z,60.61
2023-11-15T08:31:55.944Z,61.21
2023-11-15T08:34:26.747Z,60.66
2023-11-15T08:36:55.744Z,60.87
2023-11-15T08:39:25.240Z,60.98
2023-11-15T08:41:53.955Z,61.44
2023-11-15T08:44:22.501Z,62.93
2023-11-15T08:46:52.575Z,61.50
2023-11-15T08:49:22.746Z,61.55
2023-11-15T08:51:53.079Z,61.83
2023-11-15T08:54:21.769Z,60.75
2023-11-15T08:56:50.371Z,60.98
2023-11-15T08:59:21.642Z,61.81
2023-11-15T09:01:50.046Z,61.98
2023-11-15T09:04:19.568Z,62.67
2023-11-15T09:06:51.063Z,61.45
2023-11-15T09:09:19.980Z,62.43
2023-11-15T09:11:49.620Z,64.62
2023-11-15T09:14:18.898Z,63.41
2023-11-15T09:16:47.547Z,61.58
2023-11-15T09:19:23.287Z,64.06
2023-11-15T09:21:52.488Z,60.84
2023-11-15T09:24:24.452Z,61.83
2023-11-15T09:26:53.372Z,62.95
2023-11-15T09:29:21.974Z,64.18
2023-11-15T09:31:50.594Z,63.13
2023-11-15T09:34:19.669Z,63.92
2023-11-15T09:36:50.408Z,65.71
2023-11-15T09:39:19.219Z,65.51
2023-11-15T09:41:56.055Z,67.52
2023-11-15T09:44:25.894Z,66.59
2023-11-15T09:47:00.283Z,64.00
2023-11-15T09:49:29.207Z,64.76
2023-11-15T09:51:59.429Z,63.17
2023-11-15T09:54:30.348Z,62.58
2023-11-15T09:57:01.102Z,61.90
2023-11-15T09:59:29.659Z,62.54
2023-11-15T10:01:59.955Z,63.92
2023-11-15T10:04:30.745Z,63.71
2023-11-15T10:07:05.614Z,63.46
2023-11-15T10:09:39.127Z,62.97
2023-11-15T10:12:11.345Z,62.83
2023-11-15T10:14:56.159Z,63.41
2023-11-15T10:17:47.643Z,63.33
2023-11-15T10:20:24.548Z,61.42
2023-11-15T10:22:55.401Z,63.37
2023-11-15T10:25:27.629Z,63.61
2023-11-15T10:28:09.691Z,64.02
2023-11-15T10:30:39.570Z,63.70
2023-11-15T10:33:12.904Z,65.17
2023-11-15T10:35:42.747Z,65.36
2023-11-15T10:38:16.628Z,65.62
2023-11-15T10:40:46.054Z,66.63
2023-11-15T10:43:18.591Z,66.97
2023-11-15T10:45:48.528Z,66.94
2023-11-15T10:48:24.048Z,67.32
2023-11-15T10:51:00.409Z,67.42
2023-11-15T10:53:30.775Z,68.13
2023-11-15T10:56:01.413Z,69.21
2023-11-15T10:58:31.865Z,69.52
2023-11-15T11:01:00.760Z,69.72
2023-11-15T11:03:30.795Z,69.50
2023-11-15T11:06:17.916Z,69.07
2023-11-15T11:09:12.833Z,70.36
2023-11-15T11:11:54.640Z,70.35
2023-11-15T11:14:28.626Z,71.34
2023-11-15T11:17:01.590Z,71.07
2023-11-15T11:19:43.802Z,71.60
2023-11-15T11:22:14.556Z,71.64
2023-11-15T11:25:09.273Z,72.32
2023-11-15T11:27:44.932Z,71.24
2023-11-15T11:30:18.719Z,71.55
2023-11-15T11:32:52.153Z,72.06
2023-11-15T11:35:28.015Z,72.15
2023-11-15T11:37:56.940Z,71.55
2023-11-15T11:40:36.981Z,71.27
2023-11-15T11:43:14.353Z,70.75
2023-11-15T11:45:45.821Z,71.62
2023-11-15T11:48:25.352Z,69.80
2023-11-15T11:51:07.790Z,70.52
2023-11-15T11:53:44.878Z,71.12
2023-11-15T11:56:13.846Z,71.67
2023-11-15T11:58:44.845Z,72.04
2023-11-15T12:01:14.675Z,72.73
2023-11-15T12:03:50.028Z,73.64
2023-11-15T12:06:20.285Z,73.08
2023-11-15T12:08:56.530Z,73.26
2023-11-15T12:11:25.536Z,73.78
2023-11-15T12:13:55.107Z,73.49
2023-11-15T12:16:25.807Z,73.13
2023-11-15T12:19:07.398Z,74.15
2023-11-15T12:21:39.557Z,74.57
2023-11-15T12:24:09.562Z,74.31
2023-11-15T12:26:49.522Z,74.36
2023-11-15T12:29:29.411Z,74.07
2023-11-15T12:31:59.864Z,74.41
2023-11-15T12:34:29.751Z,74.31
2023-11-15T12:36:58.441Z,73.83
2023-11-15T12:39:37.162Z,73.81
2023-11-15T12:42:06.720Z,73.01
2023-11-15T12:44:46.953Z,73.31
2023-11-15T12:47:15.996Z,73.30
2023-11-15T12:49:44.763Z,72.71
2023-11-15T12:52:13.340Z,72.72
2023-11-15T12:54:58.292Z,72.23
2023-11-15T12:57:29.173Z,71.82
2023-11-15T12:59:58.873Z,72.41
2023-11-15T13:02:32.988Z,72.26
2023-11-15T13:05:06.174Z,72.37
2023-11-15T13:07:35.035Z,71.40
2023-11-15T13:10:03.589Z,71.45
2023-11-15T13:12:32.121Z,71.70
2023-11-15T13:15:00.713Z,72.13
2023-11-15T13:17:29.486Z,72.53
2023-11-15T13:20:02.531Z,72.21
2023-11-15T13:22:33.952Z,72.45
2023-11-15T13:25:02.607Z,73.59
2023-11-15T13:27:31.273Z,73.36
2023-11-15T13:30:00.537Z,73.88
2023-11-15T13:32:29.228Z,73.88
2023-11-15T13:34:57.816Z,74.28
2023-11-15T13:37:26.900Z,74.53
2023-11-15T13:39:55.549Z,74.64
2023-11-15T13:42:24.887Z,74.68
2023-11-15T13:44:53.524Z,74.93
2023-11-15T13:47:22.076Z,75.77
2023-11-15T13:49:50.454Z,76.39
2023-11-15T13:52:19.146Z,76.15
2023-11-15T13:54:48.937Z,76.14
2023-11-15T13:57:20.828Z,76.13
2023-11-15T13:59:49.558Z,75.39
2023-11-15T14:02:18.137Z,76.15
2023-11-15T14:04:46.915Z,75.35
2023-11-15T14:07:15.638Z,75.34
2023-11-15T14:09:44.333Z,75.06
2023-11-15T14:12:13.557Z,74.75
2023-11-15T14:14:42.392Z,75.05
2023-11-15T14:17:12.322Z,74.74
2023-11-15T14:19:42.519Z,75.55
2023-11-15T14:22:14.298Z,75.63
2023-11-15T14:24:42.876Z,75.88
2023-11-15T14:27:13.930Z,76.37
2023-11-15T14:29:44.038Z,77.25
2023-11-15T14:32:13.608Z,77.37
2023-11-15T14:34:44.195Z,77.49
2023-11-15T14:37:12.723Z,78.34
2023-11-15T14:39:41.344Z,78.35
2023-11-15T14:42:10.581Z,78.24
2023-11-15T14:44:39.138Z,78.44
2023-11-15T14:47:10.163Z,79.06
2023-11-15T14:49:38.415Z,78.85
2023-11-15T14:52:12.829Z,79.37
2023-11-15T14:54:49.455Z,79.57
2023-11-15T14:57:18.140Z,79.24
2023-11-15T14:59:49.270Z,79.67
2023-11-15T15:02:19.885Z,79.11
2023-11-15T15:04:50.525Z,78.95
2023-11-15T15:07:19.509Z,78.42
2023-11-15T15:09:48.602Z,78.21
2023-11-15T15:12:17.787Z,78.56
2023-11-15T15:14:46.883Z,78.08
2023-11-15T15:17:23.521Z,78.21
2023-11-15T15:19:55.544Z,78.53
2023-11-15T15:22:28.442Z,78.19
2023-11-15T15:24:57.245Z,75.89
2023-11-15T15:27:29.430Z,73.22
2023-11-15T15:30:02.237Z,70.53
2023-11-15T15:32:30.981Z,67.75
2023-11-15T15:34:59.897Z,67.08
2023-11-15T15:37:28.407Z,65.38
2023-11-15T15:39:57.094Z,65.50
2023-11-15T15:42:26.469Z,64.23
2023-11-15T15:44:55.071Z,63.12
2023-11-15T15:47:24.219Z,61.78
2023-11-15T15:49:55.747Z,62.35
2023-11-15T15:52:25.395Z,61.90
2023-11-15T15:54:53.957Z,61.05
2023-11-15T15:57:22.579Z,61.36
2023-11-15T15:59:52.591Z,61.37
2023-11-15T16:02:21.226Z,62.65
2023-11-15T16:04:49.778Z,62.76
2023-11-15T16:07:18.280Z,63.12
2023-11-15T16:09:46.289Z,63.04
2023-11-15T16:12:15.316Z,63.08
2023-11-15T16:14:43.948Z,62.75
2023-11-15T16:17:12.939Z,63.12
2023-11-15T16:19:41.533Z,63.37
2023-11-15T16:22:09.942Z,62.83
2023-11-15T16:24:38.427Z,62.35
2023-11-15T16:27:08.365Z,62.00
2023-11-15T16:29:36.724Z,62.41
2023-11-15T16:32:05.503Z,61.74
2023-11-15T16:34:34.460Z,60.45
2023-11-15T16:37:03.549Z,60.68
2023-11-15T16:39:32.224Z,61.03
2023-11-15T16:42:02.295Z,61.18
2023-11-15T16:44:35.907Z,60.49
2023-11-15T16:47:04.161Z,60.66
2023-11-15T16:49:32.731Z,61.33
2023-11-15T16:52:03.612Z,61.03
2023-11-15T16:54:33.738Z,60.58
2023-11-15T16:57:04.741Z,60.10
2023-11-15T16:59:34.964Z,58.48
2023-11-15T17:02:03.878Z,57.54
2023-11-15T17:04:32.566Z,57.07
2023-11-15T17:07:00.925Z,55.96
2023-11-15T17:09:30.583Z,55.04
2023-11-15T17:11:59.275Z,56.40
2023-11-15T17:14:28.603Z,55.52
2023-11-15T17:16:57.061Z,55.36
2023-11-15T17:19:27.299Z,55.07
2023-11-15T17:21:58.783Z,54.46
2023-11-15T17:24:28.441Z,53.92
2023-11-15T17:26:58.263Z,54.34
2023-11-15T17:29:26.869Z,53.90
2023-11-15T17:31:56.275Z,53.96
2023-11-15T17:34:24.932Z,53.32
2023-11-15T17:36:54.704Z,53.88
2023-11-15T17:39:24.296Z,53.55
2023-11-15T17:41:54.998Z,54.04
2023-11-15T17:44:24.860Z,53.57
2023-11-15T17:46:53.860Z,54.10
2023-11-15T17:49:22.160Z,54.06
2023-11-15T17:51:51.043Z,54.30
2023-11-15T17:54:21.076Z,53.81
2023-11-15T17:56:49.882Z,53.29
2023-11-15T17:59:18.329Z,53.38
2023-11-15T18:01:46.992Z,53.71
2023-11-15T18:04:16.707Z,53.38
2023-11-15T18:06:45.199Z,52.89
2023-11-15T18:09:14.326Z,53.13
2023-11-15T18:11:43.287Z,53.73
2023-11-15T18:14:12.472Z,53.82
2023-11-15T18:16:41.076Z,53.36
2023-11-15T18:19:14.501Z,53.51
2023-11-15T18:21:43.557Z,53.70
2023-11-15T18:24:13.721Z,53.00
2023-11-15T18:26:44.467Z,53.27
2023-11-15T18:29:12.918Z,52.85
2023-11-15T18:31:41.491Z,52.88
2023-11-15T18:34:11.004Z,52.36
2023-11-15T18:36:43.653Z,52.79
2023-11-15T18:39:16.837Z,52.69
2023-11-15T18:41:49.144Z,52.70
2023-11-15T18:44:20.613Z,52.45
2023-11-15T18:46:56.165Z,53.30
2023-11-15T18:49:25.460Z,52.77
2023-11-15T18:51:55.223Z,52.85
2023-11-15T18:54:24.840Z,52.88
2023-11-15T18:56:54.428Z,52.61
2023-11-15T18:59:22.940Z,52.18
2023-11-15T19:01:51.594Z,52.76
2023-11-15T19:04:21.352Z,52.43
2023-11-15T19:06:52.016Z,52.46
2023-11-15T19:09:25.603Z,52.69
2023-11-15T19:11:58.209Z,52.81
2023-11-15T19:14:26.974Z,52.23
2023-11-15T19:16:55.551Z,52.49
2023-11-15T19:19:25.270Z,52.22
2023-11-15T19:21:54.036Z,52.47
2023-11-15T19:24:23.267Z,52.76
2023-11-15T19:26:51.848Z,52.42
2023-11-15T19:29:20.548Z,53.22
2023-11-15T19:31:48.959Z,52.52
2023-11-15T19:34:19.673Z,52.51
2023-11-15T19:36:48.274Z,52.35
2023-11-15T19:39:16.988Z,52.96
2023-11-15T19:41:45.607Z,52.65
2023-11-15T19:44:15.402Z,52.37
2023-11-15T19:46:44.425Z,52.44
2023-11-15T19:49:14.327Z,52.69
2023-11-15T19:51:42.993Z,52.80
2023-11-15T19:54:11.566Z,52.59
2023-11-15T19:56:40.204Z,52.63
2023-11-15T19:59:08.772Z,52.76
2023-11-15T20:01:37.473Z,53.32
2023-11-15T20:04:07.772Z,53.18
2023-11-15T20:06:36.392Z,53.07
2023-11-15T20:09:04.955Z,53.78
2023-11-15T20:11:33.560Z,53.37
2023-11-15T20:14:02.341Z,53.44
2023-11-15T20:16:30.933Z,53.16
2023-11-15T20:18:59.578Z,52.90
2023-11-15T20:21:28.010Z,52.63
2023-11-15T20:23:56.704Z,53.25
2023-11-15T20:26:24.661Z,53.26
2023-11-15T20:28:54.229Z,53.05
2023-11-15T20:31:23.506Z,53.37
2023-11-15T20:33:52.502Z,53.39
2023-11-15T20:36:22.492Z,53.77
2023-11-15T20:38:50.997Z,53.60
2023-11-15T20:41:19.609Z,53.07
2023-11-15T20:43:48.177Z,54.11
2023-11-15T20:46:18.983Z,53.89
2023-11-15T20:48:49.391Z,54.30
2023-11-15T20:51:17.963Z,54.33
2023-11-15T20:53:46.655Z,54.91
2023-11-15T20:56:15.229Z,55.05
2023-11-15T20:58:43.926Z,53.86
2023-11-15T21:01:12.546Z,53.94
2023-11-15T21:03:41.290Z,54.80
2023-11-15T21:06:11.642Z,54.42
2023-11-15T21:08:40.238Z,54.60
2023-11-15T21:11:08.859Z,55.35
2023-11-15T21:13:37.381Z,54.91
2023-11-15T21:16:10.069Z,54.76
2023-11-15T21:18:39.212Z,55.51
2023-11-15T21:21:10.127Z,55.73
2023-11-15T21:23:41.501Z,55.25
2023-11-15T21:26:11.208Z,55.22
2023-11-15T21:28:39.802Z,55.26
2023-11-15T21:31:08.954Z,55.22
2023-11-15T21:33:37.777Z,55.36
2023-11-15T21:36:06.593Z,54.17
2023-11-15T21:38:35.126Z,54.36
2023-11-15T21:41:03.862Z,54.33
2023-11-15T21:43:32.409Z,54.81
2023-11-15T21:46:01.040Z,55.39
2023-11-15T21:48:30.725Z,55.67
2023-11-15T21:50:59.206Z,56.98
2023-11-15T21:53:27.978Z,57.02
2023-11-15T21:56:00.107Z,57.13
2023-11-15T21:58:29.875Z,57.60
2023-11-15T22:00:58.361Z,57.42
2023-11-15T22:03:26.806Z,57.08
2023-11-15T22:05:55.507Z,57.05
2023-11-15T22:08:24.056Z,56.72
2023-11-15T22:10:52.925Z,58.17
2023-11-15T22:13:21.727Z,57.74
2023-11-15T22:15:50.296Z,57.30
2023-11-15T22:18:18.983Z,58.10
2023-11-15T22:20:47.617Z,58.50
2023-11-15T22:23:16.115Z,57.99
2023-11-15T22:25:44.643Z,59.29
2023-11-15T22:28:13.250Z,61.66
2023-11-15T22:30:42.437Z,60.65
2023-11-15T22:33:11.086Z,61.03
2023-11-15T22:35:39.739Z,62.37
2023-11-15T22:38:07.650Z,62.56
2023-11-15T22:40:36.054Z,61.98
2023-11-15T22:43:06.016Z,62.68
2023-11-15T22:45:34.856Z,63.23
2023-11-15T22:48:03.543Z,63.13
2023-11-15T22:50:32.255Z,64.24
2023-11-15T22:53:00.745Z,63.01
2023-11-15T22:55:29.309Z,64.42
2023-11-15T22:57:57.856Z,64.73
2023-11-15T23:00:35.691Z,64.28
2023-11-15T23:03:11.859Z,66.15
2023-11-15T23:05:42.416Z,65.18
2023-11-15T23:08:16.599Z,65.13
2023-11-15T23:10:45.616Z,66.29
2023-11-15T23:13:14.865Z,66.50
2023-11-15T23:15:43.561Z,67.41
2023-11-15T23:18:12.650Z,67.62
2023-11-15T23:20:43.407Z,67.53
2023-11-15T23:23:12.665Z,68.47
2023-11-15T23:25:41.799Z,67.96
2023-11-15T23:28:11.584Z,69.19
2023-11-15T23:30:42.045Z,69.13
2023-11-15T23:33:10.905Z,69.65
2023-11-15T23:35:41.563Z,69.99
2023-11-15T23:38:10.276Z,69.19
2023-11-15T23:40:38.975Z,69.72
2023-11-15T23:43:07.613Z,70.37
2023-11-15T23:45:36.130Z,70.42
2023-11-15T23:48:04.874Z,70.66
2023-11-15T23:50:33.583Z,71.33
2023-11-15T23:53:02.073Z,71.61
2023-11-15T23:55:31.483Z,71.79
2023-11-15T23:58:05.816Z,71.96
